sensor_id;sensor_type;location;lat;lon;timestamp;P1;durP1;ratioP1;P2;durP2;ratioP2
58071;SDS011;60383;46.626;18.866;2023-12-20T00:02:14;46.20;;;21.75;;
58071;SDS011;60383;46.626;18.866;2023-12-20T00:04:39;44.35;;;23.25;;
58071;SDS011;60383;46.626;18.866;2023-12-20T00:07:04;46.70;;;22.90;;
58071;SDS011;60383;46.626;18.866;2023-12-20T00:09:30;44.72;;;20.80;;
58071;SDS011;60383;46.626;18.866;2023-12-20T00:11:55;52.42;;;21.33;;
58071;SDS011;60383;46.626;18.866;2023-12-20T00:14:21;43.70;;;22.45;;
58071;SDS011;60383;46.626;18.866;2023-12-20T00:16:47;42.35;;;22.60;;
58071;SDS011;60383;46.626;18.866;2023-12-20T00:19:12;49.53;;;20.65;;
58071;SDS011;60383;46.626;18.866;2023-12-20T00:21:38;47.28;;;23.05;;
58071;SDS011;60383;46.626;18.866;2023-12-20T00:24:03;40.97;;;21.85;;
58071;SDS011;60383;46.626;18.866;2023-12-20T00:26:29;52.47;;;22.42;;
58071;SDS011;60383;46.626;18.866;2023-12-20T00:28:55;37.50;;;20.55;;
58071;SDS011;60383;46.626;18.866;2023-12-20T00:31:20;38.55;;;21.45;;
58071;SDS011;60383;46.626;18.866;2023-12-20T00:33:45;44.50;;;20.65;;
58071;SDS011;60383;46.626;18.866;2023-12-20T00:36:12;46.22;;;21.30;;
58071;SDS011;60383;46.626;18.866;2023-12-20T00:38:37;46.13;;;20.58;;
58071;SDS011;60383;46.626;18.866;2023-12-20T00:41:03;55.05;;;19.92;;
58071;SDS011;60383;46.626;18.866;2023-12-20T00:43:28;45.35;;;18.70;;
58071;SDS011;60383;46.626;18.866;2023-12-20T00:45:54;48.40;;;19.38;;
58071;SDS011;60383;46.626;18.866;2023-12-20T00:48:20;45.67;;;19.52;;
58071;SDS011;60383;46.626;18.866;2023-12-20T00:50:46;48.08;;;19.33;;
58071;SDS011;60383;46.626;18.866;2023-12-20T00:53:11;49.70;;;21.02;;
58071;SDS011;60383;46.626;18.866;2023-12-20T00:55:37;43.42;;;22.13;;
58071;SDS011;60383;46.626;18.866;2023-12-20T00:58:02;44.20;;;21.10;;
58071;SDS011;60383;46.626;18.866;2023-12-20T01:00:28;53.00;;;20.30;;
58071;SDS011;60383;46.626;18.866;2023-12-20T01:02:53;50.95;;;20.40;;
58071;SDS011;60383;46.626;18.866;2023-12-20T01:05:19;48.67;;;18.13;;
58071;SDS011;60383;46.626;18.866;2023-12-20T01:07:44;42.63;;;20.13;;
58071;SDS011;60383;46.626;18.866;2023-12-20T01:10:10;47.40;;;22.75;;
58071;SDS011;60383;46.626;18.866;2023-12-20T01:12:36;44.90;;;21.15;;
58071;SDS011;60383;46.626;18.866;2023-12-20T01:15:02;49.13;;;20.02;;
58071;SDS011;60383;46.626;18.866;2023-12-20T01:17:27;47.38;;;21.67;;
58071;SDS011;60383;46.626;18.866;2023-12-20T01:19:53;45.58;;;18.10;;
58071;SDS011;60383;46.626;18.866;2023-12-20T01:22:18;44.85;;;21.63;;
58071;SDS011;60383;46.626;18.866;2023-12-20T01:24:44;56.20;;;20.30;;
58071;SDS011;60383;46.626;18.866;2023-12-20T01:27:09;44.17;;;21.40;;
58071;SDS011;60383;46.626;18.866;2023-12-20T01:29:35;51.90;;;22.92;;
58071;SDS011;60383;46.626;18.866;2023-12-20T01:32:00;47.25;;;21.20;;
58071;SDS011;60383;46.626;18.866;2023-12-20T01:34:26;48.90;;;21.48;;
58071;SDS011;60383;46.626;18.866;2023-12-20T01:36:51;46.10;;;20.90;;
58071;SDS011;60383;46.626;18.866;2023-12-20T01:39:17;42.75;;;20.45;;
58071;SDS011;60383;46.626;18.866;2023-12-20T01:41:43;49.30;;;21.60;;
58071;SDS011;60383;46.626;18.866;2023-12-20T01:44:08;48.75;;;21.88;;
58071;SDS011;60383;46.626;18.866;2023-12-20T01:46:34;55.13;;;19.98;;
58071;SDS011;60383;46.626;18.866;2023-12-20T01:48:59;40.67;;;20.15;;
58071;SDS011;60383;46.626;18.866;2023-12-20T01:51:25;56.80;;;20.73;;
58071;SDS011;60383;46.626;18.866;2023-12-20T01:53:52;41.33;;;20.73;;
58071;SDS011;60383;46.626;18.866;2023-12-20T01:56:20;48.33;;;22.10;;
58071;SDS011;60383;46.626;18.866;2023-12-20T01:58:46;43.05;;;21.55;;
58071;SDS011;60383;46.626;18.866;2023-12-20T02:01:12;40.38;;;20.45;;
58071;SDS011;60383;46.626;18.866;2023-12-20T02:03:39;43.90;;;20.75;;
58071;SDS011;60383;46.626;18.866;2023-12-20T02:06:08;45.08;;;21.55;;
58071;SDS011;60383;46.626;18.866;2023-12-20T02:08:34;36.80;;;20.80;;
58071;SDS011;60383;46.626;18.866;2023-12-20T02:11:00;39.90;;;20.08;;
58071;SDS011;60383;46.626;18.866;2023-12-20T02:13:26;43.22;;;20.77;;
58071;SDS011;60383;46.626;18.866;2023-12-20T02:15:52;44.28;;;20.77;;
58071;SDS011;60383;46.626;18.866;2023-12-20T02:18:18;43.05;;;21.02;;
58071;SDS011;60383;46.626;18.866;2023-12-20T02:20:43;44.58;;;21.10;;
58071;SDS011;60383;46.626;18.866;2023-12-20T02:23:09;46.50;;;20.42;;
58071;SDS011;60383;46.626;18.866;2023-12-20T02:25:35;44.47;;;21.83;;
58071;SDS011;60383;46.626;18.866;2023-12-20T02:28:00;41.95;;;22.00;;
58071;SDS011;60383;46.626;18.866;2023-12-20T02:30:26;45.20;;;21.38;;
58071;SDS011;60383;46.626;18.866;2023-12-20T02:32:52;40.95;;;19.77;;
58071;SDS011;60383;46.626;18.866;2023-12-20T02:35:18;42.83;;;21.35;;
58071;SDS011;60383;46.626;18.866;2023-12-20T02:37:44;45.30;;;21.42;;
58071;SDS011;60383;46.626;18.866;2023-12-20T02:40:09;51.15;;;22.77;;
58071;SDS011;60383;46.626;18.866;2023-12-20T02:42:35;42.55;;;22.27;;
58071;SDS011;60383;46.626;18.866;2023-12-20T02:45:01;48.80;;;21.48;;
58071;SDS011;60383;46.626;18.866;2023-12-20T02:47:26;48.20;;;23.92;;
58071;SDS011;60383;46.626;18.866;2023-12-20T02:49:52;46.58;;;21.30;;
58071;SDS011;60383;46.626;18.866;2023-12-20T02:52:18;50.88;;;20.63;;
58071;SDS011;60383;46.626;18.866;2023-12-20T02:54:43;49.05;;;21.25;;
58071;SDS011;60383;46.626;18.866;2023-12-20T02:57:09;39.55;;;20.48;;
58071;SDS011;60383;46.626;18.866;2023-12-20T02:59:34;44.08;;;19.73;;
58071;SDS011;60383;46.626;18.866;2023-12-20T03:01:59;43.28;;;21.63;;
58071;SDS011;60383;46.626;18.866;2023-12-20T03:04:25;40.95;;;20.80;;
58071;SDS011;60383;46.626;18.866;2023-12-20T03:06:50;39.35;;;20.85;;
58071;SDS011;60383;46.626;18.866;2023-12-20T03:09:16;46.20;;;20.77;;
58071;SDS011;60383;46.626;18.866;2023-12-20T03:11:41;45.47;;;20.75;;
58071;SDS011;60383;46.626;18.866;2023-12-20T03:14:07;45.85;;;20.25;;
58071;SDS011;60383;46.626;18.866;2023-12-20T03:16:32;47.95;;;19.90;;
58071;SDS011;60383;46.626;18.866;2023-12-20T03:18:58;42.53;;;22.35;;
58071;SDS011;60383;46.626;18.866;2023-12-20T03:21:23;44.45;;;20.33;;
58071;SDS011;60383;46.626;18.866;2023-12-20T03:23:49;45.45;;;20.98;;
58071;SDS011;60383;46.626;18.866;2023-12-20T03:26:14;43.17;;;19.98;;
58071;SDS011;60383;46.626;18.866;2023-12-20T03:28:40;54.25;;;23.67;;
58071;SDS011;60383;46.626;18.866;2023-12-20T03:31:05;46.85;;;19.92;;
58071;SDS011;60383;46.626;18.866;2023-12-20T03:33:31;41.67;;;20.77;;
58071;SDS011;60383;46.626;18.866;2023-12-20T03:35:56;45.80;;;19.40;;
58071;SDS011;60383;46.626;18.866;2023-12-20T03:38:22;48.45;;;20.20;;
58071;SDS011;60383;46.626;18.866;2023-12-20T03:40:49;45.13;;;20.60;;
58071;SDS011;60383;46.626;18.866;2023-12-20T03:43:15;44.95;;;21.30;;
58071;SDS011;60383;46.626;18.866;2023-12-20T03:45:41;42.50;;;18.25;;
58071;SDS011;60383;46.626;18.866;2023-12-20T03:48:07;43.28;;;18.77;;
58071;SDS011;60383;46.626;18.866;2023-12-20T03:50:32;46.20;;;18.25;;
58071;SDS011;60383;46.626;18.866;2023-12-20T03:52:59;44.70;;;18.50;;
58071;SDS011;60383;46.626;18.866;2023-12-20T03:55:24;38.95;;;17.70;;
58071;SDS011;60383;46.626;18.866;2023-12-20T03:57:49;40.90;;;18.58;;
58071;SDS011;60383;46.626;18.866;2023-12-20T04:00:15;35.47;;;18.02;;
58071;SDS011;60383;46.626;18.866;2023-12-20T04:02:41;39.08;;;18.48;;
58071;SDS011;60383;46.626;18.866;2023-12-20T04:05:07;47.05;;;18.23;;
58071;SDS011;60383;46.626;18.866;2023-12-20T04:07:33;31.13;;;17.77;;
58071;SDS011;60383;46.626;18.866;2023-12-20T04:09:59;37.38;;;19.73;;
58071;SDS011;60383;46.626;18.866;2023-12-20T04:12:25;41.28;;;18.42;;
58071;SDS011;60383;46.626;18.866;2023-12-20T04:14:51;41.88;;;20.05;;
58071;SDS011;60383;46.626;18.866;2023-12-20T04:17:17;37.75;;;18.55;;
58071;SDS011;60383;46.626;18.866;2023-12-20T04:19:43;37.65;;;17.88;;
58071;SDS011;60383;46.626;18.866;2023-12-20T04:22:08;34.97;;;19.52;;
58071;SDS011;60383;46.626;18.866;2023-12-20T04:24:34;43.22;;;19.17;;
58071;SDS011;60383;46.626;18.866;2023-12-20T04:26:59;45.80;;;19.63;;
58071;SDS011;60383;46.626;18.866;2023-12-20T04:29:25;42.42;;;18.85;;
58071;SDS011;60383;46.626;18.866;2023-12-20T04:31:50;41.13;;;18.67;;
58071;SDS011;60383;46.626;18.866;2023-12-20T04:34:19;37.03;;;18.48;;
58071;SDS011;60383;46.626;18.866;2023-12-20T04:36:46;49.55;;;18.73;;
58071;SDS011;60383;46.626;18.866;2023-12-20T04:39:12;41.90;;;20.98;;
58071;SDS011;60383;46.626;18.866;2023-12-20T04:41:40;44.55;;;20.52;;
58071;SDS011;60383;46.626;18.866;2023-12-20T04:44:05;41.67;;;19.90;;
58071;SDS011;60383;46.626;18.866;2023-12-20T04:46:31;40.55;;;19.80;;
58071;SDS011;60383;46.626;18.866;2023-12-20T04:48:56;35.58;;;18.25;;
58071;SDS011;60383;46.626;18.866;2023-12-20T04:51:22;39.47;;;18.05;;
58071;SDS011;60383;46.626;18.866;2023-12-20T04:53:47;39.92;;;20.17;;
58071;SDS011;60383;46.626;18.866;2023-12-20T04:56:13;41.15;;;19.90;;
58071;SDS011;60383;46.626;18.866;2023-12-20T04:58:38;44.25;;;18.90;;
58071;SDS011;60383;46.626;18.866;2023-12-20T05:01:08;41.42;;;20.02;;
58071;SDS011;60383;46.626;18.866;2023-12-20T05:03:33;42.17;;;19.08;;
58071;SDS011;60383;46.626;18.866;2023-12-20T05:05:59;38.92;;;18.65;;
58071;SDS011;60383;46.626;18.866;2023-12-20T05:08:24;35.05;;;18.05;;
58071;SDS011;60383;46.626;18.866;2023-12-20T05:10:50;38.40;;;21.10;;
58071;SDS011;60383;46.626;18.866;2023-12-20T05:13:19;33.25;;;19.10;;
58071;SDS011;60383;46.626;18.866;2023-12-20T05:15:45;45.92;;;19.63;;
58071;SDS011;60383;46.626;18.866;2023-12-20T05:18:10;38.22;;;18.83;;
58071;SDS011;60383;46.626;18.866;2023-12-20T05:20:36;28.98;;;16.98;;
58071;SDS011;60383;46.626;18.866;2023-12-20T05:23:01;37.22;;;19.30;;
58071;SDS011;60383;46.626;18.866;2023-12-20T05:25:26;36.33;;;17.88;;
58071;SDS011;60383;46.626;18.866;2023-12-20T05:27:52;37.22;;;18.40;;
58071;SDS011;60383;46.626;18.866;2023-12-20T05:30:18;38.67;;;19.13;;
58071;SDS011;60383;46.626;18.866;2023-12-20T05:32:43;36.88;;;19.63;;
58071;SDS011;60383;46.626;18.866;2023-12-20T05:35:09;35.63;;;17.65;;
58071;SDS011;60383;46.626;18.866;2023-12-20T05:37:34;50.50;;;19.30;;
58071;SDS011;60383;46.626;18.866;2023-12-20T05:39:59;33.33;;;17.63;;
58071;SDS011;60383;46.626;18.866;2023-12-20T05:42:25;33.08;;;16.30;;
58071;SDS011;60383;46.626;18.866;2023-12-20T05:44:50;35.13;;;17.80;;
58071;SDS011;60383;46.626;18.866;2023-12-20T05:47:16;37.30;;;19.40;;
58071;SDS011;60383;46.626;18.866;2023-12-20T05:49:42;35.85;;;17.88;;
58071;SDS011;60383;46.626;18.866;2023-12-20T05:52:09;37.80;;;18.85;;
58071;SDS011;60383;46.626;18.866;2023-12-20T05:54:34;36.17;;;18.50;;
58071;SDS011;60383;46.626;18.866;2023-12-20T05:57:00;36.90;;;20.08;;
58071;SDS011;60383;46.626;18.866;2023-12-20T05:59:25;48.78;;;18.25;;
58071;SDS011;60383;46.626;18.866;2023-12-20T06:01:51;31.45;;;17.50;;
58071;SDS011;60383;46.626;18.866;2023-12-20T06:04:16;38.38;;;19.08;;
58071;SDS011;60383;46.626;18.866;2023-12-20T06:06:42;36.53;;;19.50;;
58071;SDS011;60383;46.626;18.866;2023-12-20T06:09:08;46.03;;;18.58;;
58071;SDS011;60383;46.626;18.866;2023-12-20T06:11:34;44.85;;;19.45;;
58071;SDS011;60383;46.626;18.866;2023-12-20T06:13:59;34.83;;;17.23;;
58071;SDS011;60383;46.626;18.866;2023-12-20T06:16:25;30.52;;;17.27;;
58071;SDS011;60383;46.626;18.866;2023-12-20T06:18:50;29.45;;;16.45;;
58071;SDS011;60383;46.626;18.866;2023-12-20T06:21:16;41.97;;;17.88;;
58071;SDS011;60383;46.626;18.866;2023-12-20T06:23:41;40.47;;;18.33;;
58071;SDS011;60383;46.626;18.866;2023-12-20T06:26:06;35.85;;;17.30;;
58071;SDS011;60383;46.626;18.866;2023-12-20T06:28:32;32.58;;;17.38;;
58071;SDS011;60383;46.626;18.866;2023-12-20T06:30:57;38.00;;;17.90;;
58071;SDS011;60383;46.626;18.866;2023-12-20T06:33:23;35.22;;;18.17;;
58071;SDS011;60383;46.626;18.866;2023-12-20T06:35:49;38.65;;;18.90;;
58071;SDS011;60383;46.626;18.866;2023-12-20T06:38:14;40.38;;;19.23;;
58071;SDS011;60383;46.626;18.866;2023-12-20T06:40:40;42.45;;;22.23;;
58071;SDS011;60383;46.626;18.866;2023-12-20T06:43:05;41.15;;;18.83;;
58071;SDS011;60383;46.626;18.866;2023-12-20T06:45:32;40.75;;;19.10;;
58071;SDS011;60383;46.626;18.866;2023-12-20T06:47:57;38.28;;;18.35;;
58071;SDS011;60383;46.626;18.866;2023-12-20T06:50:23;34.63;;;17.98;;
58071;SDS011;60383;46.626;18.866;2023-12-20T06:52:49;38.78;;;18.42;;
58071;SDS011;60383;46.626;18.866;2023-12-20T06:55:14;32.75;;;17.20;;
58071;SDS011;60383;46.626;18.866;2023-12-20T06:57:40;33.97;;;16.45;;
58071;SDS011;60383;46.626;18.866;2023-12-20T07:00:06;30.83;;;17.55;;
58071;SDS011;60383;46.626;18.866;2023-12-20T07:02:31;33.08;;;16.85;;
58071;SDS011;60383;46.626;18.866;2023-12-20T07:04:57;36.65;;;17.20;;
58071;SDS011;60383;46.626;18.866;2023-12-20T07:07:22;36.75;;;16.90;;
58071;SDS011;60383;46.626;18.866;2023-12-20T07:09:49;33.00;;;16.10;;
58071;SDS011;60383;46.626;18.866;2023-12-20T07:12:15;33.85;;;16.48;;
58071;SDS011;60383;46.626;18.866;2023-12-20T07:14:40;34.28;;;16.00;;
58071;SDS011;60383;46.626;18.866;2023-12-20T07:17:06;35.40;;;16.30;;
58071;SDS011;60383;46.626;18.866;2023-12-20T07:19:36;29.13;;;15.93;;
58071;SDS011;60383;46.626;18.866;2023-12-20T07:22:03;33.00;;;16.70;;
58071;SDS011;60383;46.626;18.866;2023-12-20T07:24:29;33.92;;;15.98;;
58071;SDS011;60383;46.626;18.866;2023-12-20T07:26:54;35.17;;;16.50;;
58071;SDS011;60383;46.626;18.866;2023-12-20T07:29:20;32.10;;;16.63;;
58071;SDS011;60383;46.626;18.866;2023-12-20T07:31:45;37.13;;;17.13;;
58071;SDS011;60383;46.626;18.866;2023-12-20T07:34:11;34.63;;;16.60;;
58071;SDS011;60383;46.626;18.866;2023-12-20T07:36:36;31.88;;;16.60;;
58071;SDS011;60383;46.626;18.866;2023-12-20T07:39:02;32.50;;;16.55;;
58071;SDS011;60383;46.626;18.866;2023-12-20T07:41:28;39.03;;;18.58;;
58071;SDS011;60383;46.626;18.866;2023-12-20T07:43:53;34.10;;;18.13;;
58071;SDS011;60383;46.626;18.866;2023-12-20T07:46:20;32.78;;;16.90;;
58071;SDS011;60383;46.626;18.866;2023-12-20T07:48:47;31.80;;;14.80;;
58071;SDS011;60383;46.626;18.866;2023-12-20T07:51:13;26.42;;;15.05;;
58071;SDS011;60383;46.626;18.866;2023-12-20T07:53:38;29.98;;;15.77;;
58071;SDS011;60383;46.626;18.866;2023-12-20T07:56:13;32.47;;;16.42;;
58071;SDS011;60383;46.626;18.866;2023-12-20T07:58:40;34.42;;;15.15;;
58071;SDS011;60383;46.626;18.866;2023-12-20T08:01:05;30.33;;;15.20;;
58071;SDS011;60383;46.626;18.866;2023-12-20T08:03:31;33.88;;;16.50;;
58071;SDS011;60383;46.626;18.866;2023-12-20T08:05:57;29.85;;;16.00;;
58071;SDS011;60383;46.626;18.866;2023-12-20T08:08:24;28.85;;;16.38;;
58071;SDS011;60383;46.626;18.866;2023-12-20T08:10:50;34.83;;;17.10;;
58071;SDS011;60383;46.626;18.866;2023-12-20T08:13:15;35.50;;;16.55;;
58071;SDS011;60383;46.626;18.866;2023-12-20T08:15:41;37.22;;;16.88;;
58071;SDS011;60383;46.626;18.866;2023-12-20T08:18:06;34.08;;;15.90;;
58071;SDS011;60383;46.626;18.866;2023-12-20T08:20:32;41.92;;;22.67;;
58071;SDS011;60383;46.626;18.866;2023-12-20T08:22:57;50.13;;;25.52;;
58071;SDS011;60383;46.626;18.866;2023-12-20T08:25:22;42.63;;;22.60;;
58071;SDS011;60383;46.626;18.866;2023-12-20T08:27:48;35.65;;;19.73;;
58071;SDS011;60383;46.626;18.866;2023-12-20T08:30:13;36.97;;;17.27;;
58071;SDS011;60383;46.626;18.866;2023-12-20T08:32:39;35.13;;;17.05;;
58071;SDS011;60383;46.626;18.866;2023-12-20T08:35:04;28.30;;;15.27;;
58071;SDS011;60383;46.626;18.866;2023-12-20T08:37:31;30.23;;;16.02;;
58071;SDS011;60383;46.626;18.866;2023-12-20T08:39:56;38.05;;;17.10;;
58071;SDS011;60383;46.626;18.866;2023-12-20T08:42:22;39.40;;;17.55;;
58071;SDS011;60383;46.626;18.866;2023-12-20T08:44:49;39.72;;;19.17;;
58071;SDS011;60383;46.626;18.866;2023-12-20T08:47:15;36.47;;;18.65;;
58071;SDS011;60383;46.626;18.866;2023-12-20T08:49:41;40.85;;;19.08;;
58071;SDS011;60383;46.626;18.866;2023-12-20T08:52:06;43.67;;;19.85;;
58071;SDS011;60383;46.626;18.866;2023-12-20T08:54:32;40.80;;;19.63;;
58071;SDS011;60383;46.626;18.866;2023-12-20T08:56:57;42.35;;;21.05;;
58071;SDS011;60383;46.626;18.866;2023-12-20T08:59:23;43.70;;;21.25;;
58071;SDS011;60383;46.626;18.866;2023-12-20T09:01:48;46.55;;;20.55;;
58071;SDS011;60383;46.626;18.866;2023-12-20T09:04:19;49.67;;;22.70;;
58071;SDS011;60383;46.626;18.866;2023-12-20T09:06:44;46.13;;;21.17;;
58071;SDS011;60383;46.626;18.866;2023-12-20T09:09:10;40.70;;;19.73;;
58071;SDS011;60383;46.626;18.866;2023-12-20T09:11:38;48.75;;;22.40;;
58071;SDS011;60383;46.626;18.866;2023-12-20T09:14:04;44.35;;;20.27;;
58071;SDS011;60383;46.626;18.866;2023-12-20T09:16:29;46.03;;;20.77;;
58071;SDS011;60383;46.626;18.866;2023-12-20T09:18:56;32.63;;;18.08;;
58071;SDS011;60383;46.626;18.866;2023-12-20T09:21:22;39.90;;;18.60;;
58071;SDS011;60383;46.626;18.866;2023-12-20T09:23:47;39.30;;;19.52;;
58071;SDS011;60383;46.626;18.866;2023-12-20T09:26:13;47.03;;;20.80;;
58071;SDS011;60383;46.626;18.866;2023-12-20T09:28:38;40.63;;;20.10;;
58071;SDS011;60383;46.626;18.866;2023-12-20T09:31:05;41.60;;;19.40;;
58071;SDS011;60383;46.626;18.866;2023-12-20T09:33:31;39.08;;;18.77;;
58071;SDS011;60383;46.626;18.866;2023-12-20T09:35:57;39.55;;;18.42;;
58071;SDS011;60383;46.626;18.866;2023-12-20T09:38:23;36.15;;;18.38;;
58071;SDS011;60383;46.626;18.866;2023-12-20T09:40:49;43.95;;;19.50;;
58071;SDS011;60383;46.626;18.866;2023-12-20T09:43:15;36.83;;;17.65;;
58071;SDS011;60383;46.626;18.866;2023-12-20T09:45:45;35.05;;;17.52;;
58071;SDS011;60383;46.626;18.866;2023-12-20T09:48:11;35.78;;;18.58;;
58071;SDS011;60383;46.626;18.866;2023-12-20T09:50:39;37.58;;;17.48;;
58071;SDS011;60383;46.626;18.866;2023-12-20T09:53:05;32.90;;;16.95;;
58071;SDS011;60383;46.626;18.866;2023-12-20T09:55:34;31.98;;;15.73;;
58071;SDS011;60383;46.626;18.866;2023-12-20T09:58:01;33.13;;;16.40;;
58071;SDS011;60383;46.626;18.866;2023-12-20T10:00:27;36.38;;;16.33;;
58071;SDS011;60383;46.626;18.866;2023-12-20T10:02:59;35.13;;;15.52;;
58071;SDS011;60383;46.626;18.866;2023-12-20T10:05:28;35.33;;;16.88;;
58071;SDS011;60383;46.626;18.866;2023-12-20T10:07:55;31.85;;;17.33;;
58071;SDS011;60383;46.626;18.866;2023-12-20T10:10:21;35.53;;;16.67;;
58071;SDS011;60383;46.626;18.866;2023-12-20T10:13:06;34.95;;;17.65;;
58071;SDS011;60383;46.626;18.866;2023-12-20T10:15:34;29.77;;;15.98;;
58071;SDS011;60383;46.626;18.866;2023-12-20T10:18:00;34.55;;;17.48;;
58071;SDS011;60383;46.626;18.866;2023-12-20T10:20:27;41.85;;;18.38;;
58071;SDS011;60383;46.626;18.866;2023-12-20T10:22:54;33.50;;;16.40;;
58071;SDS011;60383;46.626;18.866;2023-12-20T10:25:20;35.22;;;17.08;;
58071;SDS011;60383;46.626;18.866;2023-12-20T10:27:46;34.63;;;16.00;;
58071;SDS011;60383;46.626;18.866;2023-12-20T10:30:12;35.67;;;17.15;;
58071;SDS011;60383;46.626;18.866;2023-12-20T10:32:41;39.22;;;17.70;;
58071;SDS011;60383;46.626;18.866;2023-12-20T10:35:07;32.17;;;15.25;;
58071;SDS011;60383;46.626;18.866;2023-12-20T10:37:37;31.10;;;16.40;;
58071;SDS011;60383;46.626;18.866;2023-12-20T10:40:03;32.90;;;15.10;;
58071;SDS011;60383;46.626;18.866;2023-12-20T10:42:31;33.75;;;17.08;;
58071;SDS011;60383;46.626;18.866;2023-12-20T10:44:58;33.13;;;17.15;;
58071;SDS011;60383;46.626;18.866;2023-12-20T10:47:25;29.60;;;14.82;;
58071;SDS011;60383;46.626;18.866;2023-12-20T10:49:52;33.47;;;16.95;;
58071;SDS011;60383;46.626;18.866;2023-12-20T10:52:18;34.75;;;17.02;;
58071;SDS011;60383;46.626;18.866;2023-12-20T10:54:44;39.15;;;18.05;;
58071;SDS011;60383;46.626;18.866;2023-12-20T10:57:10;37.13;;;19.02;;
58071;SDS011;60383;46.626;18.866;2023-12-20T10:59:37;37.90;;;19.67;;
58071;SDS011;60383;46.626;18.866;2023-12-20T11:02:04;40.97;;;19.65;;
58071;SDS011;60383;46.626;18.866;2023-12-20T11:11:07;33.78;;;17.92;;
58071;SDS011;60383;46.626;18.866;2023-12-20T11:13:41;38.35;;;19.90;;
58071;SDS011;60383;46.626;18.866;2023-12-20T11:16:13;34.30;;;18.55;;
58071;SDS011;60383;46.626;18.866;2023-12-20T11:18:40;35.85;;;18.85;;
58071;SDS011;60383;46.626;18.866;2023-12-20T11:21:06;36.78;;;20.60;;
58071;SDS011;60383;46.626;18.866;2023-12-20T11:23:42;34.72;;;18.33;;
58071;SDS011;60383;46.626;18.866;2023-12-20T11:26:10;39.42;;;21.15;;
58071;SDS011;60383;46.626;18.866;2023-12-20T11:28:35;37.30;;;20.48;;
58071;SDS011;60383;46.626;18.866;2023-12-20T11:31:01;34.97;;;19.08;;
58071;SDS011;60383;46.626;18.866;2023-12-20T11:36:02;28.45;;;15.63;;
58071;SDS011;60383;46.626;18.866;2023-12-20T11:38:37;29.15;;;15.32;;
58071;SDS011;60383;46.626;18.866;2023-12-20T11:41:05;30.08;;;16.77;;
58071;SDS011;60383;46.626;18.866;2023-12-20T11:43:35;26.08;;;14.88;;
58071;SDS011;60383;46.626;18.866;2023-12-20T11:46:08;28.00;;;15.18;;
58071;SDS011;60383;46.626;18.866;2023-12-20T11:48:35;29.35;;;15.05;;
58071;SDS011;60383;46.626;18.866;2023-12-20T11:51:10;28.30;;;15.23;;
58071;SDS011;60383;46.626;18.866;2023-12-20T11:53:37;29.05;;;16.02;;
58071;SDS011;60383;46.626;18.866;2023-12-20T11:56:03;26.05;;;14.55;;
58071;SDS011;60383;46.626;18.866;2023-12-20T11:58:30;29.30;;;15.13;;
58071;SDS011;60383;46.626;18.866;2023-12-20T12:00:57;26.42;;;13.77;;
58071;SDS011;60383;46.626;18.866;2023-12-20T12:03:22;25.48;;;14.30;;
58071;SDS011;60383;46.626;18.866;2023-12-20T12:05:49;28.45;;;15.70;;
58071;SDS011;60383;46.626;18.866;2023-12-20T12:08:15;28.85;;;14.93;;
58071;SDS011;60383;46.626;18.866;2023-12-20T12:10:40;25.13;;;14.65;;
58071;SDS011;60383;46.626;18.866;2023-12-20T12:13:06;25.23;;;13.50;;
58071;SDS011;60383;46.626;18.866;2023-12-20T12:15:31;25.60;;;14.77;;
58071;SDS011;60383;46.626;18.866;2023-12-20T12:17:57;29.10;;;15.48;;
58071;SDS011;60383;46.626;18.866;2023-12-20T12:20:24;28.90;;;15.68;;
58071;SDS011;60383;46.626;18.866;2023-12-20T12:23:00;26.92;;;14.55;;
58071;SDS011;60383;46.626;18.866;2023-12-20T12:25:26;26.67;;;15.52;;
58071;SDS011;60383;46.626;18.866;2023-12-20T12:27:55;27.50;;;15.57;;
58071;SDS011;60383;46.626;18.866;2023-12-20T12:30:20;28.38;;;15.77;;
58071;SDS011;60383;46.626;18.866;2023-12-20T12:32:46;25.70;;;14.50;;
58071;SDS011;60383;46.626;18.866;2023-12-20T12:35:13;27.70;;;14.30;;
58071;SDS011;60383;46.626;18.866;2023-12-20T12:37:39;26.33;;;15.07;;
58071;SDS011;60383;46.626;18.866;2023-12-20T12:40:09;26.90;;;14.80;;
58071;SDS011;60383;46.626;18.866;2023-12-20T12:42:37;26.55;;;15.30;;
58071;SDS011;60383;46.626;18.866;2023-12-20T12:45:03;27.50;;;15.60;;
58071;SDS011;60383;46.626;18.866;2023-12-20T12:47:29;25.08;;;14.45;;
58071;SDS011;60383;46.626;18.866;2023-12-20T12:49:55;30.10;;;15.70;;
58071;SDS011;60383;46.626;18.866;2023-12-20T12:52:21;25.60;;;15.25;;
58071;SDS011;60383;46.626;18.866;2023-12-20T12:54:47;30.73;;;15.77;;
58071;SDS011;60383;46.626;18.866;2023-12-20T12:57:14;24.90;;;14.57;;
58071;SDS011;60383;46.626;18.866;2023-12-20T12:59:43;26.98;;;15.55;;
58071;SDS011;60383;46.626;18.866;2023-12-20T13:02:10;19.13;;;11.75;;
58071;SDS011;60383;46.626;18.866;2023-12-20T13:04:36;15.77;;;9.63;;
58071;SDS011;60383;46.626;18.866;2023-12-20T13:07:04;12.25;;;7.40;;
58071;SDS011;60383;46.626;18.866;2023-12-20T13:09:48;13.25;;;8.20;;
58071;SDS011;60383;46.626;18.866;2023-12-20T13:12:19;10.10;;;6.50;;
58071;SDS011;60383;46.626;18.866;2023-12-20T13:14:51;12.88;;;6.88;;
58071;SDS011;60383;46.626;18.866;2023-12-20T13:17:16;9.85;;;6.07;;
58071;SDS011;60383;46.626;18.866;2023-12-20T13:19:42;10.40;;;6.60;;
58071;SDS011;60383;46.626;18.866;2023-12-20T13:22:08;9.50;;;5.55;;
58071;SDS011;60383;46.626;18.866;2023-12-20T13:24:33;10.30;;;6.72;;
58071;SDS011;60383;46.626;18.866;2023-12-20T13:26:59;8.85;;;5.60;;
58071;SDS011;60383;46.626;18.866;2023-12-20T13:29:25;8.50;;;5.20;;
58071;SDS011;60383;46.626;18.866;2023-12-20T13:31:53;10.25;;;5.78;;
58071;SDS011;60383;46.626;18.866;2023-12-20T13:34:19;8.25;;;5.97;;
58071;SDS011;60383;46.626;18.866;2023-12-20T13:36:44;11.45;;;6.30;;
58071;SDS011;60383;46.626;18.866;2023-12-20T13:39:15;13.27;;;6.82;;
58071;SDS011;60383;46.626;18.866;2023-12-20T13:41:41;10.43;;;6.03;;
58071;SDS011;60383;46.626;18.866;2023-12-20T13:44:07;9.95;;;6.40;;
58071;SDS011;60383;46.626;18.866;2023-12-20T13:46:33;11.70;;;7.30;;
58071;SDS011;60383;46.626;18.866;2023-12-20T13:48:58;12.23;;;7.82;;
58071;SDS011;60383;46.626;18.866;2023-12-20T13:51:24;14.70;;;8.40;;
58071;SDS011;60383;46.626;18.866;2023-12-20T13:53:50;12.40;;;8.07;;
58071;SDS011;60383;46.626;18.866;2023-12-20T13:56:15;14.95;;;8.20;;
58071;SDS011;60383;46.626;18.866;2023-12-20T13:58:41;13.65;;;8.38;;
58071;SDS011;60383;46.626;18.866;2023-12-20T14:01:07;15.48;;;8.45;;
58071;SDS011;60383;46.626;18.866;2023-12-20T14:03:34;14.88;;;8.88;;
58071;SDS011;60383;46.626;18.866;2023-12-20T14:05:59;14.88;;;8.80;;
58071;SDS011;60383;46.626;18.866;2023-12-20T14:08:26;17.00;;;10.07;;
58071;SDS011;60383;46.626;18.866;2023-12-20T14:10:52;14.85;;;8.48;;
58071;SDS011;60383;46.626;18.866;2023-12-20T14:13:17;14.10;;;9.18;;
58071;SDS011;60383;46.626;18.866;2023-12-20T14:15:43;16.65;;;9.20;;